Time;durP1;ratioP1;P1;durP2;ratioP2;P2;SDS_P1;SDS_P2;PMS_P1;PMS_P2;Temp;Humidity;BMP_temperature;BMP_pressure;BME280_temperature;BME280_humidity;BME280_pressure;Samples;Min_cycle;Max_cycle;Signal;HPM_P1;HPM_P2
2023/09/15 00:00:30;;;;;;;0.80;0.40;;;;;;;-143.84;83.58;45096.66;5089549;28;20519;-55
2023/09/15 00:02:58;;;;;;;0.80;0.30;;;;;;;-143.84;83.70;45068.13;5089192;28;20475;-55
2023/09/15 00:05:28;;;;;;;0.80;0.30;;;;;;;-143.84;83.52;45085.25;5089161;28;20983;-55
2023/09/15 00:07:57;;;;;;;0.80;0.30;;;;;;;-143.84;83.82;45115.72;5089417;28;20525;-55
2023/09/15 00:10:26;;;;;;;0.80;0.30;;;;;;;-143.84;83.90;45100.47;5089066;28;20886;-55
2023/09/15 00:12:54;;;;;;;0.80;0.30;;;;;;;-143.84;83.82;45090.97;5088974;28;20448;-55
2023/09/15 00:15:22;;;;;;;0.80;0.30;;;;;;;-143.84;84.00;45070.00;5089110;28;20484;-55
2023/09/15 00:17:49;;;;;;;0.80;0.30;;;;;;;-143.84;83.69;45062.41;5088321;28;20529;-55
2023/09/15 00:20:16;;;;;;;0.80;0.40;;;;;;;-143.84;83.48;45075.72;5087946;28;20505;-55
2023/09/15 00:22:48;;;;;;;0.80;0.30;;;;;;;-143.84;83.75;45104.28;5088040;28;20436;-55
2023/09/15 00:25:18;;;;;;;0.80;0.30;;;;;;;-143.84;83.26;45104.28;5088595;28;20894;-55
2023/09/15 00:27:46;;;;;;;0.80;0.30;;;;;;;-143.84;83.95;45104.28;5088175;28;20501;-55
2023/09/15 00:30:16;;;;;;;0.80;0.30;;;;;;;-143.84;84.27;45102.38;5088002;28;20440;-55
2023/09/15 00:32:44;;;;;;;0.80;0.30;;;;;;;-143.84;84.00;45110.00;5088142;28;20816;-55
2023/09/15 00:35:11;;;;;;;0.80;0.30;;;;;;;-143.84;83.48;45083.34;5087987;28;20479;-56
2023/09/15 00:37:38;;;;;;;0.80;0.30;;;;;;;-143.84;83.64;45089.06;5088669;28;20435;-55
2023/09/15 00:40:08;;;;;;;0.80;0.30;;;;;;;-143.84;83.66;45064.31;5088411;28;20839;-55
2023/09/15 00:42:35;;;;;;;0.80;0.30;;;;;;;-143.84;83.77;45090.97;5089002;28;20517;-55
2023/09/15 00:45:04;;;;;;;0.80;0.30;;;;;;;-143.84;83.71;45089.06;5088859;28;20545;-55
2023/09/15 00:47:32;;;;;;;0.80;0.30;;;;;;;-143.84;83.92;45104.28;5090191;28;20534;-55
2023/09/15 00:50:00;;;;;;;0.80;0.30;;;;;;;-143.84;84.17;45083.34;5093204;28;20436;-55
2023/09/15 00:52:27;;;;;;;0.80;0.30;;;;;;;-143.84;84.34;45085.25;5093058;28;20994;-55
2023/09/15 00:54:55;;;;;;;0.80;0.30;;;;;;;-143.84;84.33;45089.06;5092591;28;20483;-55
2023/09/15 00:57:25;;;;;;;1.00;0.50;;;;;;;-143.84;84.65;45104.28;5092907;28;20782;-55
2023/09/15 00:59:52;;;;;;;0.80;0.30;;;;;;;-143.84;84.02;45102.38;5092640;28;20544;-55
2023/09/15 01:02:20;;;;;;;0.80;0.40;;;;;;;-143.84;83.96;45073.81;5092650;28;20442;-55
2023/09/15 01:04:48;;;;;;;0.80;0.40;;;;;;;-143.84;83.75;45087.16;5092832;28;20858;-55
2023/09/15 01:07:15;;;;;;;0.80;0.30;;;;;;;-143.84;83.75;45094.78;5092528;28;20432;-55
2023/09/15 01:09:43;;;;;;;0.80;0.40;;;;;;;-143.84;83.46;45092.88;5092416;28;20432;-55
2023/09/15 01:12:10;;;;;;;0.80;0.30;;;;;;;-143.84;83.65;45102.38;5092404;28;20444;-55
2023/09/15 01:14:37;;;;;;;0.80;0.30;;;;;;;-143.84;83.60;45073.81;5092171;28;20471;-55
2023/09/15 01:17:10;;;;;;;0.80;0.30;;;;;;;-143.84;83.54;45092.88;5092146;28;20451;-55
2023/09/15 01:20:06;;;;;;;0.80;0.30;;;;;;;-143.84;83.49;45096.66;5092153;28;20439;-55
2023/09/15 01:23:11;;;;;;;0.80;0.30;;;;;;;-143.84;83.24;45094.78;5091835;28;20443;-55
2023/09/15 01:26:07;;;;;;;0.80;0.30;;;;;;;-143.84;83.61;45073.81;5091950;28;20431;-55
2023/09/15 01:29:02;;;;;;;0.80;0.30;;;;;;;-143.84;83.64;45075.72;5092406;28;20496;-55
2023/09/15 01:31:31;;;;;;;0.80;0.30;;;;;;;-143.84;83.55;45077.63;5076415;28;20456;-55
2023/09/15 01:33:58;;;;;;;0.80;0.30;;;;;;;-143.84;83.90;45077.63;5091492;28;20896;-55
2023/09/15 01:36:25;;;;;;;0.80;0.33;;;;;;;-143.84;83.80;45090.97;5091127;28;20436;-55
2023/09/15 01:38:52;;;;;;;0.80;0.30;;;;;;;-143.84;84.14;45081.44;5091897;28;20451;-55
2023/09/15 01:41:20;;;;;;;0.80;0.40;;;;;;;-143.84;83.95;45113.81;5091829;28;20444;-55
2023/09/15 01:43:47;;;;;;;0.80;0.30;;;;;;;-143.84;84.20;45081.44;5091936;28;20945;-55
2023/09/15 01:46:14;;;;;;;0.80;0.30;;;;;;;-143.84;84.03;45115.72;5091756;28;20473;-55
2023/09/15 01:48:43;;;;;;;0.80;0.30;;;;;;;-143.84;83.89;45119.53;5091927;28;20505;-55
2023/09/15 01:51:11;;;;;;;0.80;0.30;;;;;;;-143.84;84.24;45081.44;5091960;28;20455;-55
2023/09/15 01:53:39;;;;;;;0.80;0.30;;;;;;;-143.84;84.12;45098.56;5091684;28;20440;-55
2023/09/15 01:56:07;;;;;;;0.80;0.30;;;;;;;-143.84;83.69;45092.88;5091579;28;20540;-55
2023/09/15 01:58:34;;;;;;;0.80;0.33;;;;;;;-143.84;83.93;45085.25;5089616;28;20451;-55
2023/09/15 02:01:01;;;;;;;0.80;0.30;;;;;;;-143.84;83.32;45068.13;5090838;28;20953;-55
2023/09/15 02:03:28;;;;;;;0.80;0.40;;;;;;;-143.84;83.69;45094.78;5091263;28;20552;-55
2023/09/15 02:06:03;;;;;;;0.80;0.30;;;;;;;-143.84;83.99;45125.22;5091076;28;20447;-55
2023/09/15 02:08:30;;;;;;;0.80;0.30;;;;;;;-143.84;83.75;45070.00;5090801;28;20450;-55
2023/09/15 02:10:57;;;;;;;0.83;0.40;;;;;;;-143.84;84.39;45083.34;5090756;28;20500;-55
2023/09/15 02:13:24;;;;;;;0.80;0.30;;;;;;;-143.84;84.88;45113.81;5091283;28;20443;-55
2023/09/15 02:15:53;;;;;;;0.80;0.30;;;;;;;-143.84;85.19;45083.34;5091403;28;20490;-55
2023/09/15 02:18:21;;;;;;;0.80;0.40;;;;;;;-143.84;85.52;45094.78;5091089;28;20480;-55
2023/09/15 02:20:54;;;;;;;0.80;0.40;;;;;;;-143.84;85.43;45083.34;5091159;28;20500;-55
2023/09/15 02:23:23;;;;;;;0.80;0.40;;;;;;;-143.84;85.69;45083.34;5091101;28;20467;-55
2023/09/15 02:25:50;;;;;;;0.80;0.30;;;;;;;-143.84;85.92;45104.28;5091146;28;20505;-55
2023/09/15 02:28:18;;;;;;;0.80;0.30;;;;;;;-143.84;85.63;45102.38;5091157;28;20960;-55
2023/09/15 02:30:45;;;;;;;0.80;0.30;;;;;;;-143.84;85.42;45079.53;5091001;28;20436;-55
2023/09/15 02:33:12;;;;;;;0.80;0.30;;;;;;;-143.84;85.35;45090.97;5091032;28;20952;-55
2023/09/15 02:35:39;;;;;;;0.80;0.30;;;;;;;-143.84;85.21;45098.56;5090887;28;20479;-55
2023/09/15 02:38:06;;;;;;;0.80;0.30;;;;;;;-143.84;85.22;45113.81;5090740;28;20513;-55
2023/09/15 02:40:35;;;;;;;0.90;0.50;;;;;;;-143.84;84.83;45070.00;5090685;28;20443;-55
2023/09/15 02:43:02;;;;;;;0.80;0.33;;;;;;;-143.84;84.67;45096.66;5090556;28;20449;-55
2023/09/15 02:45:29;;;;;;;0.80;0.30;;;;;;;-143.84;84.35;45090.97;5090886;28;20429;-55
2023/09/15 02:47:57;;;;;;;0.80;0.30;;;;;;;-143.84;84.12;45075.72;5090683;28;20448;-55
2023/09/15 02:50:24;;;;;;;0.80;0.30;;;;;;;-143.84;83.64;45111.91;5090713;28;20892;-55
2023/09/15 02:52:51;;;;;;;0.80;0.40;;;;;;;-143.84;83.35;45079.53;5090594;28;21230;-55
2023/09/15 02:55:19;;;;;;;0.80;0.30;;;;;;;-143.84;82.73;45079.53;5090580;28;20580;-55
2023/09/15 02:57:47;;;;;;;0.80;0.30;;;;;;;-143.84;82.38;45075.72;5090311;28;20455;-55
2023/09/15 03:00:15;;;;;;;0.80;0.40;;;;;;;-143.84;82.16;45092.88;5090326;28;20452;-55
2023/09/15 03:02:43;;;;;;;0.80;0.30;;;;;;;-143.84;81.78;45081.44;5090490;28;20432;-55
2023/09/15 03:05:11;;;;;;;0.80;0.30;;;;;;;-143.84;81.26;45102.38;5090175;28;20509;-55
2023/09/15 03:07:39;;;;;;;0.80;0.40;;;;;;;-143.84;81.13;45081.44;5090493;28;20513;-55
2023/09/15 03:10:08;;;;;;;0.80;0.30;;;;;;;-143.84;80.90;45087.16;5090261;28;20878;-55
2023/09/15 03:12:35;;;;;;;0.80;0.30;;;;;;;-143.84;80.58;45092.88;5089945;28;20452;-55
2023/09/15 03:15:07;;;;;;;0.80;0.30;;;;;;;-143.84;80.12;45087.16;5089896;28;21049;-55
2023/09/15 03:17:34;;;;;;;0.80;0.30;;;;;;;-143.84;80.27;45087.16;5089626;28;20496;-55
2023/09/15 03:20:09;;;;;;;0.80;0.30;;;;;;;-143.84;80.00;45079.53;5090113;28;20420;-55
2023/09/15 03:22:36;;;;;;;0.80;0.30;;;;;;;-143.84;80.05;45108.09;5090128;28;20439;-55
2023/09/15 03:25:04;;;;;;;0.80;0.30;;;;;;;-143.84;79.73;45104.28;5089858;28;20474;-55
2023/09/15 03:27:31;;;;;;;0.80;0.30;;;;;;;-143.84;80.15;45070.00;5089617;28;20446;-55
2023/09/15 03:29:59;;;;;;;0.80;0.40;;;;;;;-143.84;79.69;45090.97;5089656;28;20997;-55
2023/09/15 03:32:27;;;;;;;0.80;0.30;;;;;;;-143.84;79.82;45085.25;5089599;28;20471;-55
2023/09/15 03:34:54;;;;;;;0.80;0.30;;;;;;;-143.84;79.54;45106.19;5089536;28;20560;-55
2023/09/15 03:37:21;;;;;;;0.80;0.40;;;;;;;-143.84;79.69;45073.81;5089678;28;20493;-55
2023/09/15 03:39:49;;;;;;;0.80;0.30;;;;;;;-143.84;79.48;45100.47;5089347;28;20929;-55
2023/09/15 03:42:16;;;;;;;0.80;0.30;;;;;;;-143.84;79.60;45098.56;5089604;28;20436;-55
2023/09/15 03:44:43;;;;;;;0.80;0.40;;;;;;;-143.84;79.45;45083.34;5085984;28;20494;-55
2023/09/15 03:47:10;;;;;;;0.80;0.40;;;;;;;-143.84;79.83;45106.19;5078173;28;20506;-55
2023/09/15 03:49:39;;;;;;;0.80;0.30;;;;;;;-143.84;79.84;45090.97;5069060;28;20923;-56
2023/09/15 03:52:06;;;;;;;0.80;0.40;;;;;;;-143.84;79.38;45102.38;5069216;28;20985;-56
2023/09/15 03:54:33;;;;;;;0.80;0.30;;;;;;;-143.84;79.72;45111.91;5068935;28;20448;-55
2023/09/15 03:57:00;;;;;;;0.80;0.30;;;;;;;-143.84;79.66;45104.28;5074111;28;21007;-55
2023/09/15 03:59:27;;;;;;;0.80;0.30;;;;;;;-143.84;79.47;45090.97;5074477;28;20451;-55
2023/09/15 04:01:54;;;;;;;0.80;0.30;;;;;;;-143.84;79.85;45068.13;5089234;28;20444;-55
2023/09/15 04:04:21;;;;;;;0.80;0.30;;;;;;;-143.84;80.05;45106.19;5089417;28;20440;-55
2023/09/15 04:06:51;;;;;;;0.80;0.30;;;;;;;-143.84;79.74;45090.97;5089085;28;20432;-55
2023/09/15 04:09:19;;;;;;;0.80;0.30;;;;;;;-143.84;79.93;45066.22;5089015;28;20444;-55
2023/09/15 04:11:46;;;;;;;0.80;0.40;;;;;;;-143.84;79.75;45092.88;5089116;28;20824;-55
2023/09/15 04:14:13;;;;;;;0.80;0.30;;;;;;;-143.84;79.51;45113.81;5088841;28;20443;-55
2023/09/15 04:16:40;;;;;;;0.80;0.30;;;;;;;-143.84;79.88;45066.22;5089026;28;20871;-55
2023/09/15 04:19:07;;;;;;;0.80;0.30;;;;;;;-143.84;80.04;45077.63;5088760;28;20487;-55
2023/09/15 04:21:37;;;;;;;0.80;0.30;;;;;;;-143.84;79.65;45106.19;5088401;28;20466;-55
2023/09/15 04:24:07;;;;;;;0.80;0.30;;;;;;;-143.84;79.55;45089.06;5088771;28;20452;-55
2023/09/15 04:26:35;;;;;;;0.80;0.30;;;;;;;-143.84;79.94;45085.25;5088882;28;21179;-55
2023/09/15 04:29:02;;;;;;;0.80;0.40;;;;;;;-143.84;79.95;45071.91;5088934;28;20440;-55
2023/09/15 04:31:29;;;;;;;0.80;0.30;;;;;;;-143.84;79.98;45092.88;5089114;28;20431;-55
2023/09/15 04:33:56;;;;;;;0.80;0.33;;;;;;;-143.84;79.85;45089.06;5088943;28;20489;-55
2023/09/15 04:36:23;;;;;;;0.80;0.30;;;;;;;-143.84;79.82;45083.34;5088894;28;20508;-55
2023/09/15 04:38:50;;;;;;;0.80;0.30;;;;;;;-143.84;79.81;45085.25;5088812;28;20440;-55
2023/09/15 04:41:19;;;;;;;0.80;0.40;;;;;;;-143.84;80.13;45079.53;5088818;28;20432;-55
2023/09/15 04:43:46;;;;;;;0.80;0.30;;;;;;;-143.84;79.88;45079.53;5088837;28;20439;-55
2023/09/15 04:46:13;;;;;;;0.80;0.30;;;;;;;-143.84;80.44;45064.31;5088317;28;20991;-55
2023/09/15 04:48:40;;;;;;;0.80;0.30;;;;;;;-143.84;80.62;45077.63;5088456;28;20432;-55
2023/09/15 04:51:07;;;;;;;0.80;0.40;;;;;;;-143.84;80.80;45073.81;5088145;28;20455;-55
2023/09/15 04:53:34;;;;;;;0.80;0.30;;;;;;;-143.84;81.01;45066.22;5088118;28;20515;-55
2023/09/15 04:56:03;;;;;;;0.80;0.30;;;;;;;-143.84;80.83;45064.31;5088331;28;20471;-55
2023/09/15 04:58:31;;;;;;;0.80;0.37;;;;;;;-143.84;81.14;45062.41;5087678;28;20463;-55
2023/09/15 05:01:00;;;;;;;0.80;0.30;;;;;;;-143.84;80.85;45054.78;5087550;28;20474;-55
2023/09/15 05:03:28;;;;;;;0.80;0.30;;;;;;;-143.84;80.30;45089.06;5087444;28;20539;-55
2023/09/15 05:05:55;;;;;;;0.80;0.30;;;;;;;-143.84;79.83;45079.53;5087951;28;20487;-55
2023/09/15 05:08:22;;;;;;;0.80;0.37;;;;;;;-143.84;79.20;45062.41;5087846;28;20795;-55
2023/09/15 05:10:50;;;;;;;1.37;1.23;;;;;;;-143.84;79.31;45070.00;5087822;28;20508;-55
2023/09/15 05:13:17;;;;;;;0.80;0.30;;;;;;;-143.84;78.17;45070.00;5087904;28;20436;-55
2023/09/15 05:15:46;;;;;;;0.80;0.30;;;;;;;-143.84;78.82;45054.78;5087607;28;20536;-55
2023/09/15 05:18:13;;;;;;;0.80;0.30;;;;;;;-143.84;78.17;45064.31;5087944;28;20496;-55
2023/09/15 05:20:40;;;;;;;0.80;0.30;;;;;;;-143.84;77.88;45066.22;5088394;28;20561;-55
2023/09/15 05:23:07;;;;;;;0.80;0.30;;;;;;;-143.84;77.22;45066.22;5088387;28;20521;-55
2023/09/15 05:25:36;;;;;;;0.80;0.30;;;;;;;-143.84;77.87;45079.53;5088235;28;20501;-56
2023/09/15 05:28:04;;;;;;;4.60;2.60;;;;;;;-143.84;76.35;45060.50;5088008;28;20444;-55
2023/09/15 05:30:33;;;;;;;1.00;0.77;;;;;;;-143.84;76.61;45071.91;5088022;28;20501;-55
2023/09/15 05:33:02;;;;;;;0.80;0.40;;;;;;;-143.84;77.05;45071.91;5088913;28;20504;-55
2023/09/15 05:35:29;;;;;;;0.80;0.30;;;;;;;-143.84;77.14;45068.13;5092139;28;20564;-55
2023/09/15 05:37:56;;;;;;;0.80;0.30;;;;;;;-143.84;75.10;45062.41;5091955;28;20442;-54
2023/09/15 05:40:23;;;;;;;0.80;0.30;;;;;;;-143.84;75.97;45079.53;5092240;28;20496;-55
2023/09/15 05:42:51;;;;;;;0.80;0.30;;;;;;;-143.84;74.53;45071.91;5091719;28;20493;-54
2023/09/15 05:45:18;;;;;;;0.80;0.40;;;;;;;-143.84;74.18;45083.34;5091703;28;20439;-55
2023/09/15 05:47:45;;;;;;;0.80;0.30;;;;;;;-143.84;72.93;45075.72;5091828;28;20436;-54
2023/09/15 05:50:14;;;;;;;0.80;0.30;;;;;;;-143.84;71.54;45092.88;5091614;28;20444;-54
2023/09/15 05:52:42;;;;;;;0.80;0.30;;;;;;;-143.84;70.54;45049.06;5091993;28;20448;-55
2023/09/15 05:55:10;;;;;;;0.80;0.30;;;;;;;-143.84;67.56;45035.75;5091565;28;20447;-54
2023/09/15 05:57:37;;;;;;;0.80;0.30;;;;;;;-143.84;62.94;45070.00;5091586;28;20496;-54
2023/09/15 06:00:05;;;;;;;0.80;0.40;;;;;;;-143.84;64.52;45062.41;5091528;28;20435;-55
2023/09/15 06:02:33;;;;;;;0.90;0.30;;;;;;;-143.84;62.57;45071.91;5091416;28;20477;-54
2023/09/15 06:05:00;;;;;;;0.87;0.30;;;;;;;-143.84;58.33;45056.69;5091466;28;20867;-55
2023/09/15 06:07:29;;;;;;;0.90;0.40;;;;;;;-143.84;56.05;45068.13;5091352;28;20444;-54
2023/09/15 06:09:56;;;;;;;0.90;0.30;;;;;;;-143.84;55.93;45087.16;5091367;28;20892;-54
2023/09/15 06:12:23;;;;;;;0.90;0.30;;;;;;;-143.84;56.16;45077.63;5091483;28;20513;-55
2023/09/15 06:14:50;;;;;;;0.90;0.30;;;;;;;-143.84;55.31;45056.69;5091161;28;20432;-55
2023/09/15 06:17:17;;;;;;;0.90;0.30;;;;;;;-143.84;53.21;45058.59;5090818;28;20483;-54
2023/09/15 06:19:44;;;;;;;0.90;0.30;;;;;;;-143.84;52.38;45070.00;5091192;28;20866;-55
2023/09/15 06:22:12;;;;;;;0.90;0.30;;;;;;;-143.84;51.14;45047.16;5091051;28;20432;-54
2023/09/15 06:24:40;;;;;;;0.90;0.30;;;;;;;-143.84;50.01;45045.25;5090883;28;20444;-54
2023/09/15 06:27:08;;;;;;;0.90;0.40;;;;;;;-143.84;51.32;45066.22;5090887;28;20929;-55
2023/09/15 06:29:35;;;;;;;0.90;0.30;;;;;;;-143.84;51.49;45077.63;5091009;28;20432;-54
2023/09/15 06:32:03;;;;;;;0.90;0.30;;;;;;;-143.84;51.13;45050.97;5091087;28;20837;-55
2023/09/15 06:34:30;;;;;;;0.90;0.30;;;;;;;-143.84;50.19;45049.06;5090929;28;20436;-55
2023/09/15 06:36:57;;;;;;;0.90;0.30;;;;;;;-143.84;49.39;45062.41;5090529;28;20482;-55
2023/09/15 06:39:26;;;;;;;0.90;0.40;;;;;;;-143.84;48.48;45056.69;5090888;28;20467;-54
2023/09/15 06:41:55;;;;;;;0.90;0.30;;;;;;;-143.84;47.16;45045.25;5090500;28;20913;-55
2023/09/15 06:44:22;;;;;;;0.90;0.30;;;;;;;-143.84;46.48;45052.88;5090397;28;20505;-54
2023/09/15 06:46:49;;;;;;;0.90;0.40;;;;;;;-143.84;47.00;45056.69;5090248;28;20443;-54
2023/09/15 06:49:21;;;;;;;0.90;0.30;;;;;;;-143.84;45.71;45050.97;5090557;28;20440;-54
2023/09/15 06:51:49;;;;;;;0.90;0.30;;;;;;;-143.84;46.64;45026.22;5090518;28;20443;-54
2023/09/15 06:54:16;;;;;;;0.87;0.30;;;;;;;-143.84;47.23;45054.78;5090676;28;21294;-54
2023/09/15 06:56:43;;;;;;;0.90;0.30;;;;;;;-143.84;48.07;45060.50;5090416;28;20491;-54
2023/09/15 06:59:11;;;;;;;0.90;0.40;;;;;;;-143.84;46.94;45028.13;5090588;28;20574;-55
2023/09/15 07:01:39;;;;;;;0.90;0.30;;;;;;;-143.84;46.69;45033.84;5090410;28;20798;-55
2023/09/15 07:04:07;;;;;;;0.90;0.40;;;;;;;-143.84;47.03;45045.25;5090356;28;20841;-55
2023/09/15 07:06:34;;;;;;;0.90;0.30;;;;;;;-143.84;47.80;45033.84;5090100;28;20448;-54
2023/09/15 07:09:02;;;;;;;0.90;0.30;;;;;;;-143.84;50.47;45047.16;5090023;28;20494;-54
2023/09/15 07:11:30;;;;;;;0.90;0.33;;;;;;;-143.84;49.71;45037.66;5090004;28;20432;-55
2023/09/15 07:13:57;;;;;;;0.90;0.30;;;;;;;-143.84;48.88;45043.34;5090205;28;20440;-55
2023/09/15 07:16:26;;;;;;;0.90;0.30;;;;;;;-143.84;48.23;45064.31;5090041;28;20487;-55
2023/09/15 07:18:53;;;;;;;0.90;0.30;;;;;;;-143.84;48.27;45022.41;5089774;28;20495;-55
2023/09/15 07:21:20;;;;;;;0.90;0.30;;;;;;;-143.84;47.60;45037.66;5089886;28;20499;-55
2023/09/15 07:23:47;;;;;;;0.90;0.30;;;;;;;-143.84;47.34;45031.94;5089833;28;20482;-55
2023/09/15 07:26:14;;;;;;;0.90;0.30;;;;;;;-143.84;49.54;45037.66;5089723;28;20493;-55
2023/09/15 07:28:41;;;;;;;0.90;0.30;;;;;;;-143.84;48.74;45028.13;5090134;28;20471;-54
2023/09/15 07:31:11;;;;;;;0.90;0.30;;;;;;;-143.84;51.96;45018.59;5089664;28;20439;-55
2023/09/15 07:33:39;;;;;;;0.90;0.30;;;;;;;-143.84;53.49;45045.25;5089638;28;20501;-54
2023/09/15 07:36:07;;;;;;;0.90;0.30;;;;;;;-143.84;51.62;45030.03;5089840;28;20483;-55
2023/09/15 07:38:34;;;;;;;0.90;0.30;;;;;;;-143.84;52.33;45041.44;5089525;28;20473;-55
2023/09/15 07:41:01;;;;;;;0.90;0.30;;;;;;;-143.84;50.60;45052.88;5089557;28;20500;-55
2023/09/15 07:43:28;;;;;;;0.90;0.30;;;;;;;-143.84;49.43;45033.84;5089597;28;20500;-55
2023/09/15 07:45:55;;;;;;;0.90;0.30;;;;;;;-143.84;51.68;45035.75;5089662;28;21011;-55
2023/09/15 07:48:22;;;;;;;0.90;0.30;;;;;;;-143.84;50.67;45037.66;5089106;28;20435;-55
2023/09/15 07:50:51;;;;;;;0.90;0.30;;;;;;;-143.84;52.30;45009.09;5088940;28;20530;-55
2023/09/15 07:53:18;;;;;;;0.90;0.30;;;;;;;-143.84;50.31;45041.44;5089097;28;20515;-55
2023/09/15 07:55:45;;;;;;;0.90;0.30;;;;;;;-143.84;46.87;45024.31;5089126;28;20436;-55
2023/09/15 07:58:13;;;;;;;0.90;0.30;;;;;;;-143.84;47.55;45031.94;5088004;28;20435;-55
2023/09/15 08:00:40;;;;;;;0.90;0.30;;;;;;;-143.84;47.87;45041.44;5088803;28;20436;-55
2023/09/15 08:03:08;;;;;;;0.90;0.40;;;;;;;-143.84;48.31;45007.19;5088639;28;20436;-55
2023/09/15 08:05:35;;;;;;;0.90;0.30;;;;;;;-143.84;47.09;45018.59;5088902;28;20451;-55
2023/09/15 08:08:04;;;;;;;0.90;0.40;;;;;;;-143.84;46.66;45041.44;5089369;28;20439;-55
2023/09/15 08:10:31;;;;;;;0.90;0.30;;;;;;;-143.84;46.55;45009.09;5089223;28;20506;-55
2023/09/15 08:12:58;;;;;;;0.90;0.30;;;;;;;-143.84;46.97;45014.78;5089049;28;20444;-55
2023/09/15 08:15:26;;;;;;;0.90;0.30;;;;;;;-143.84;48.06;45026.22;5089068;28;20440;-55
2023/09/15 08:17:53;;;;;;;0.90;0.30;;;;;;;-143.84;47.88;45003.38;5088663;28;20495;-55
2023/09/15 08:20:21;;;;;;;0.90;0.30;;;;;;;-143.84;46.93;45005.28;5088978;28;20488;-55
2023/09/15 08:22:49;;;;;;;0.90;0.30;;;;;;;-143.84;47.83;45037.66;5089008;28;20444;-55
2023/09/15 08:25:18;;;;;;;0.90;0.40;;;;;;;-143.84;45.97;44999.56;5089112;28;20444;-55
2023/09/15 08:27:46;;;;;;;0.90;0.30;;;;;;;-143.84;46.19;44984.31;5088988;28;21000;-55
2023/09/15 08:30:14;;;;;;;0.90;0.30;;;;;;;-143.84;46.21;45007.19;5088953;28;20432;-55
2023/09/15 08:32:42;;;;;;;0.90;0.40;;;;;;;-143.84;45.50;44993.84;5088752;28;20882;-55
2023/09/15 08:35:10;;;;;;;0.90;0.30;;;;;;;-143.84;46.13;44993.84;5088912;28;20938;-55
2023/09/15 08:37:37;;;;;;;0.90;0.30;;;;;;;-143.84;45.26;45005.28;5088690;28;20596;-55
2023/09/15 08:40:06;;;;;;;0.90;0.30;;;;;;;-143.84;45.57;44991.94;5088689;28;20440;-55
2023/09/15 08:42:34;;;;;;;0.90;0.30;;;;;;;-143.84;45.78;44978.63;5088769;28;20435;-55
2023/09/15 08:45:05;;;;;;;0.90;0.30;;;;;;;-143.84;45.45;44965.28;5088647;28;20483;-55
2023/09/15 08:47:34;;;;;;;0.90;0.40;;;;;;;-143.84;45.53;44971.00;5088746;28;20457;-55
2023/09/15 08:50:03;;;;;;;0.83;0.30;;;;;;;-143.84;45.33;44974.81;5088517;28;20440;-55
2023/09/15 08:52:31;;;;;;;0.90;0.30;;;;;;;-143.84;44.78;45007.19;5088423;28;20781;-55
2023/09/15 08:54:59;;;;;;;0.90;0.30;;;;;;;-143.84;44.86;44991.94;5088453;28;20432;-55
2023/09/15 08:57:30;;;;;;;0.80;0.30;;;;;;;-143.84;44.60;44971.00;5088583;28;20529;-55
2023/09/15 08:59:59;;;;;;;1.00;0.50;;;;;;;-143.84;44.62;44978.63;5088969;28;20439;-55
2023/09/15 09:02:28;;;;;;;0.80;0.30;;;;;;;-143.84;44.86;44982.41;5088466;28;20440;-55
2023/09/15 09:04:55;;;;;;;0.80;0.40;;;;;;;-143.84;44.38;45007.19;5088439;28;20463;-56
2023/09/15 09:07:23;;;;;;;2.80;0.77;;;;;;;-143.84;44.80;44986.22;5088193;28;20508;-56
2023/09/15 09:09:51;;;;;;;0.80;0.30;;;;;;;-143.84;44.96;44991.94;5092167;28;20447;-55
2023/09/15 09:12:18;;;;;;;1.40;0.87;;;;;;;-143.84;44.53;44961.47;5092664;28;20443;-55
2023/09/15 09:14:45;;;;;;;0.90;0.40;;;;;;;-143.84;44.26;44976.72;5092779;28;20505;-55
2023/09/15 09:17:18;;;;;;;0.80;0.30;;;;;;;-143.84;43.73;45007.19;5092255;28;20578;-55
2023/09/15 09:19:47;;;;;;;0.80;0.30;;;;;;;-143.84;43.55;45028.13;5092250;28;20528;-55
2023/09/15 09:22:17;;;;;;;0.80;0.30;;;;;;;-143.84;44.30;44971.00;5091982;28;20447;-55
2023/09/15 09:24:45;;;;;;;4.13;0.83;;;;;;;-143.84;44.97;44976.72;5092438;28;20432;-55
2023/09/15 09:27:13;;;;;;;0.80;0.30;;;;;;;-143.84;45.14;45010.97;5092223;28;20435;-60
2023/09/15 09:29:41;;;;;;;0.80;0.30;;;;;;;-143.84;44.85;44988.13;5092309;28;21301;-59
2023/09/15 09:32:13;;;;;;;0.80;0.30;;;;;;;-143.84;45.24;44993.84;5092456;28;20443;-59
2023/09/15 09:34:42;;;;;;;0.80;0.30;;;;;;;-143.84;44.82;44971.00;5092114;28;20431;-60
2023/09/15 09:37:10;;;;;;;0.80;0.50;;;;;;;-143.84;44.98;45001.47;5091972;28;21004;-59
2023/09/15 09:39:37;;;;;;;0.80;0.30;;;;;;;-143.84;45.18;44991.94;5091731;28;20447;-59
2023/09/15 09:42:05;;;;;;;0.80;0.30;;;;;;;-143.84;45.08;45012.88;5092096;28;20447;-58
2023/09/15 09:44:36;;;;;;;0.80;0.30;;;;;;;-143.84;45.83;44993.84;5091910;28;20909;-59
2023/09/15 09:47:04;;;;;;;0.90;0.30;;;;;;;-143.84;46.29;44982.41;5091768;28;20448;-59
2023/09/15 09:49:31;;;;;;;0.90;0.40;;;;;;;-143.84;47.69;45014.78;5091808;28;20542;-59
2023/09/15 09:52:00;;;;;;;0.83;0.40;;;;;;;-143.84;49.31;44959.56;5091592;28;20484;-59
2023/09/15 09:54:28;;;;;;;0.83;0.30;;;;;;;-143.84;47.05;44991.94;5091722;28;20568;-58
2023/09/15 09:56:55;;;;;;;0.80;0.30;;;;;;;-143.84;49.15;44995.75;5091657;28;20491;-59
2023/09/15 09:59:22;;;;;;;0.80;0.30;;;;;;;-143.84;48.60;44995.75;5091602;28;20554;-59
2023/09/15 10:01:50;;;;;;;0.90;0.30;;;;;;;-143.84;48.43;45010.97;5091322;28;20799;-58
2023/09/15 10:04:17;;;;;;;0.80;0.30;;;;;;;-143.84;49.18;44980.53;5091701;28;20431;-58
2023/09/15 10:06:44;;;;;;;0.90;0.40;;;;;;;-143.84;47.23;44976.72;5091602;28;20443;-59
2023/09/15 10:09:14;;;;;;;0.80;0.30;;;;;;;-143.84;46.72;45003.38;5091621;28;20458;-59
2023/09/15 10:11:41;;;;;;;0.83;0.30;;;;;;;-143.84;47.49;44982.41;5091517;28;20440;-59
2023/09/15 10:14:09;;;;;;;0.83;0.30;;;;;;;-143.84;47.87;44988.13;5091317;28;20440;-59
2023/09/15 10:16:36;;;;;;;0.80;0.40;;;;;;;-143.84;48.14;44969.09;5091065;28;20474;-58
2023/09/15 10:19:04;;;;;;;0.87;0.37;;;;;;;-143.84;48.17;45010.97;5090646;28;20989;-59
2023/09/15 10:21:34;;;;;;;0.83;0.40;;;;;;;-143.84;48.34;44972.91;5090458;28;20918;-58
2023/09/15 10:24:06;;;;;;;0.90;0.30;;;;;;;-143.84;48.84;44997.66;5091156;28;20473;-58
2023/09/15 10:26:35;;;;;;;0.80;0.30;;;;;;;-143.84;47.77;44990.03;5091050;28;20996;-58
2023/09/15 10:29:02;;;;;;;0.80;0.40;;;;;;;-143.84;47.30;45007.19;5090816;28;20497;-59
2023/09/15 10:31:34;;;;;;;0.80;0.30;;;;;;;-143.84;48.95;45010.97;5090821;28;20501;-58
2023/09/15 10:34:02;;;;;;;0.90;0.40;;;;;;;-143.84;49.28;44999.56;5090948;28;20442;-59
2023/09/15 10:36:29;;;;;;;1.10;0.80;;;;;;;-143.84;48.32;45012.88;5090714;28;20439;-58
2023/09/15 10:38:58;;;;;;;0.80;0.30;;;;;;;-143.84;48.14;45009.09;5090762;28;20958;-57
2023/09/15 10:41:29;;;;;;;0.83;0.37;;;;;;;-143.84;45.93;44972.91;5091036;28;21336;-58
2023/09/15 10:43:58;;;;;;;0.80;0.30;;;;;;;-143.84;46.69;45010.97;5090685;28;20857;-57
2023/09/15 10:46:35;;;;;;;0.80;0.30;;;;;;;-143.84;46.94;44995.75;5090546;28;20440;-59
2023/09/15 10:49:14;;;;;;;0.83;0.30;;;;;;;-143.84;47.83;45003.38;5090222;28;20450;-57
2023/09/15 10:51:53;;;;;;;0.90;0.30;;;;;;;-143.84;48.31;44980.53;5090274;28;20527;-58
2023/09/15 10:54:20;;;;;;;0.90;0.30;;;;;;;-143.84;50.25;44978.63;5090248;28;20443;-58
2023/09/15 10:56:48;;;;;;;0.90;0.30;;;;;;;-143.84;48.63;44999.56;5090377;28;20501;-58
2023/09/15 10:59:17;;;;;;;1.10;0.73;;;;;;;-143.84;49.66;44999.56;5090176;28;20977;-58
2023/09/15 11:01:46;;;;;;;0.90;0.30;;;;;;;-143.84;49.80;45009.09;5090394;28;20440;-58
2023/09/15 11:04:17;;;;;;;0.90;0.30;;;;;;;-143.84;50.10;45024.31;5090072;28;20493;-58
2023/09/15 11:06:46;;;;;;;0.90;0.30;;;;;;;-143.84;49.05;45016.69;5090260;28;20432;-58
2023/09/15 11:09:15;;;;;;;0.90;0.30;;;;;;;-143.84;49.51;45033.84;5090255;28;20467;-58
2023/09/15 11:11:45;;;;;;;0.90;0.30;;;;;;;-143.84;49.80;45007.19;5090157;28;20440;-58
2023/09/15 11:14:16;;;;;;;0.90;0.30;;;;;;;-143.84;50.25;45020.50;5090085;28;20965;-58
2023/09/15 11:16:48;;;;;;;0.90;0.43;;;;;;;-143.84;50.54;45020.50;5089581;28;20444;-59
2023/09/15 11:19:17;;;;;;;0.90;0.40;;;;;;;-143.84;50.97;45014.78;5089810;28;20563;-59
2023/09/15 11:21:45;;;;;;;0.90;0.37;;;;;;;-143.84;51.96;45043.34;5090041;28;20996;-60